Terminal Aerodrome Forecast
Issued by NWS Caribou, ME

Home | Current Version | Previous Version | Text Only | Print | Product List | Glossary On
Versions: 1 2 3 4 5 6 7 8 9 10 11 12 13 14 15 16 17 18 19
000
FTUS41 KCAR 291700 RRA
TAFBGR
TAF
KBGR 291745Z 2918/3018 27010KT P6SM SCT050
     FM292100 26007KT P6SM SKC
     FM300000 21005KT P6SM SCT250
     FM300700 00000KT 3SM BR SCT001
     FM300800 00000KT 1/2SM FG SCT001
     FM301000 00000KT 2SM BR SKC
     FM301200 17005KT P6SM SKC=

USA.gov is the U.S. government's official web portal to all federal, state and local government web resources and services.